createdAt,value
2018-09-03T00:00:57.165Z,1.97
2018-09-03T00:02:01.925Z,2.33
2018-09-03T00:03:05.642Z,2.60
2018-09-03T00:04:09.076Z,2.10
2018-09-03T00:05:12.492Z,2.53
2018-09-03T00:06:15.880Z,2.47
2018-09-03T00:07:19.318Z,2.10
2018-09-03T00:08:22.763Z,2.63
2018-09-03T00:09:26.302Z,2.20
2018-09-03T00:10:29.792Z,2.60
2018-09-03T00:11:33.222Z,2.40
2018-09-03T00:12:37.175Z,2.27
2018-09-03T00:13:40.608Z,2.47
2018-09-03T00:14:44.002Z,2.07
2018-09-03T00:15:47.404Z,2.33
2018-09-03T00:16:50.785Z,2.23
2018-09-03T00:17:54.180Z,1.67
2018-09-03T00:18:57.666Z,2.07
2018-09-03T00:20:01.041Z,2.13
2018-09-03T00:21:04.454Z,2.40
2018-09-03T00:22:08.144Z,1.97
2018-09-03T00:23:11.558Z,2.43
2018-09-03T00:24:14.977Z,2.40
2018-09-03T00:25:18.379Z,2.30
2018-09-03T00:26:21.798Z,2.00
2018-09-03T00:27:25.192Z,2.20
2018-09-03T00:28:28.617Z,2.10
2018-09-03T00:29:32.024Z,2.20
2018-09-03T00:30:35.404Z,2.40
2018-09-03T00:31:44.066Z,2.53
2018-09-03T00:32:52.843Z,2.30
2018-09-03T00:34:01.472Z,2.20
2018-09-03T00:35:10.600Z,1.80
2018-09-03T00:36:19.210Z,2.27
2018-09-03T00:37:27.952Z,2.13
2018-09-03T00:38:36.598Z,2.23
2018-09-03T00:39:45.347Z,2.70
2018-09-03T00:40:54.190Z,2.30
2018-09-03T00:42:02.821Z,1.90
2018-09-03T00:43:11.648Z,1.83
2018-09-03T00:44:20.389Z,2.50
2018-09-03T00:45:29.134Z,2.23
2018-09-03T00:46:37.940Z,2.23
2018-09-03T00:47:41.316Z,2.23
2018-09-03T00:48:44.745Z,2.17
2018-09-03T00:49:48.146Z,2.13
2018-09-03T00:50:51.626Z,2.10
2018-09-03T00:51:55.030Z,2.03
2018-09-03T00:52:58.458Z,2.43
2018-09-03T00:54:01.866Z,2.50
2018-09-03T00:55:05.304Z,2.00
2018-09-03T00:56:08.708Z,2.50
2018-09-03T00:57:12.105Z,2.40
2018-09-03T00:58:15.572Z,2.37
2018-09-03T00:59:19.026Z,2.20
2018-09-03T01:00:22.509Z,2.47
2018-09-03T01:01:25.946Z,2.27
2018-09-03T01:02:29.419Z,2.40
2018-09-03T01:03:32.833Z,1.90
2018-09-03T01:04:36.248Z,2.50
2018-09-03T01:05:39.641Z,2.33
2018-09-03T01:06:43.073Z,2.30
2018-09-03T01:07:46.430Z,2.17
2018-09-03T01:08:49.875Z,1.83
2018-09-03T01:09:53.381Z,2.30
2018-09-03T01:10:56.800Z,2.13
2018-09-03T01:12:00.244Z,2.13
2018-09-03T01:13:03.633Z,1.80
2018-09-03T01:14:07.056Z,2.67
2018-09-03T01:15:10.505Z,2.00
2018-09-03T01:16:13.905Z,2.27
2018-09-03T01:17:17.316Z,2.00
2018-09-03T01:18:20.704Z,2.60
2018-09-03T01:19:24.153Z,2.47
2018-09-03T01:20:27.585Z,2.23
2018-09-03T01:21:30.989Z,2.37
2018-09-03T01:22:34.416Z,1.97
2018-09-03T01:23:37.852Z,2.47
2018-09-03T01:24:41.272Z,2.93
2018-09-03T01:25:44.704Z,2.30
2018-09-03T01:26:48.120Z,2.40
2018-09-03T01:27:51.575Z,2.07
2018-09-03T01:28:54.987Z,2.10
2018-09-03T01:29:58.418Z,2.20
2018-09-03T01:31:01.955Z,1.93
2018-09-03T01:32:05.407Z,2.33
2018-09-03T01:33:08.848Z,2.20
2018-09-03T01:34:12.237Z,1.97
2018-09-03T01:35:15.621Z,2.20
2018-09-03T01:36:19.381Z,2.10
2018-09-03T01:37:22.793Z,2.17
2018-09-03T01:38:26.265Z,1.83
2018-09-03T01:39:29.702Z,1.87
2018-09-03T01:40:33.098Z,2.20
2018-09-03T01:41:36.521Z,1.73
2018-09-03T01:42:39.926Z,1.90
2018-09-03T01:43:43.472Z,2.20
2018-09-03T01:44:46.890Z,2.20
2018-09-03T01:45:50.301Z,2.23
2018-09-03T01:46:53.801Z,1.90
2018-09-03T01:47:57.307Z,2.10
2018-09-03T01:49:00.728Z,1.97
2018-09-03T01:50:04.142Z,2.13
2018-09-03T01:51:07.694Z,1.90
2018-09-03T01:52:11.102Z,2.20
2018-09-03T01:53:14.501Z,2.10
2018-09-03T01:54:17.898Z,2.17
2018-09-03T01:55:21.327Z,2.00
2018-09-03T01:56:24.720Z,2.30
2018-09-03T01:57:28.135Z,1.93
2018-09-03T01:58:31.551Z,2.07
2018-09-03T01:59:34.916Z,2.47
2018-09-03T02:00:38.341Z,1.90
2018-09-03T02:01:41.727Z,1.80
2018-09-03T02:02:45.127Z,1.70
2018-09-03T02:03:48.616Z,2.03
2018-09-03T02:04:51.996Z,1.80
2018-09-03T02:05:55.412Z,1.90
2018-09-03T02:06:58.807Z,2.00
2018-09-03T02:08:02.207Z,2.33
2018-09-03T02:09:09.605Z,2.00
2018-09-03T02:10:13.030Z,2.30
2018-09-03T02:11:16.492Z,1.80
2018-09-03T02:12:19.899Z,1.90
2018-09-03T02:13:23.295Z,2.23
2018-09-03T02:14:26.704Z,2.10
2018-09-03T02:15:30.161Z,1.60
2018-09-03T02:16:33.558Z,1.93
2018-09-03T02:17:37.001Z,1.83
2018-09-03T02:18:40.856Z,1.70
2018-09-03T02:19:44.286Z,2.30
2018-09-03T02:20:47.665Z,2.20
2018-09-03T02:21:51.067Z,2.10
2018-09-03T02:22:54.490Z,1.87
2018-09-03T02:23:57.950Z,2.17
2018-09-03T02:25:01.420Z,3.23
2018-09-03T02:26:04.836Z,1.80
2018-09-03T02:27:08.276Z,2.03
2018-09-03T02:28:11.670Z,1.90
2018-09-03T02:29:15.068Z,2.13
2018-09-03T02:30:18.491Z,2.20
2018-09-03T02:31:21.878Z,2.23
2018-09-03T02:32:25.244Z,2.60
2018-09-03T02:33:28.721Z,2.00
2018-09-03T02:34:32.082Z,1.97
2018-09-03T02:35:35.483Z,2.13
2018-09-03T02:36:38.887Z,2.47
2018-09-03T02:37:42.329Z,1.63
2018-09-03T02:38:45.748Z,1.90
2018-09-03T02:39:49.176Z,1.70
2018-09-03T02:40:52.627Z,2.13
2018-09-03T02:41:56.262Z,1.83
2018-09-03T02:42:59.670Z,2.40
2018-09-03T02:44:03.048Z,2.10
2018-09-03T02:45:07.744Z,2.10
2018-09-03T02:46:11.191Z,2.20
2018-09-03T02:47:14.653Z,1.70
2018-09-03T02:48:18.135Z,1.77
2018-09-03T02:49:21.502Z,2.00
2018-09-03T02:50:24.903Z,2.10
2018-09-03T02:51:28.352Z,1.93
2018-09-03T02:52:31.898Z,2.00
2018-09-03T02:53:35.610Z,1.83
2018-09-03T02:54:38.978Z,2.00
2018-09-03T02:55:42.352Z,1.70
2018-09-03T02:56:45.817Z,2.10
2018-09-03T02:57:49.172Z,2.17
2018-09-03T02:58:52.615Z,1.80
2018-09-03T02:59:56.016Z,2.40
2018-09-03T03:00:59.455Z,1.87
2018-09-03T03:02:02.872Z,2.13
2018-09-03T03:03:06.432Z,1.93
2018-09-03T03:04:09.818Z,1.50
2018-09-03T03:05:13.201Z,2.23
2018-09-03T03:06:16.644Z,2.20
2018-09-03T03:07:20.055Z,1.93
2018-09-03T03:08:23.473Z,1.80
2018-09-03T03:09:26.959Z,2.20
2018-09-03T03:10:30.364Z,2.03
2018-09-03T03:11:33.772Z,2.03
2018-09-03T03:12:37.216Z,1.90
2018-09-03T03:13:40.644Z,1.90
2018-09-03T03:14:44.077Z,1.90
2018-09-03T03:15:47.468Z,1.83
2018-09-03T03:16:50.855Z,2.10
2018-09-03T03:17:54.264Z,1.63
2018-09-03T03:18:57.676Z,2.00
2018-09-03T03:20:01.119Z,1.90
2018-09-03T03:21:04.530Z,2.20
2018-09-03T03:22:07.884Z,1.60
2018-09-03T03:23:11.294Z,1.77
2018-09-03T03:24:14.669Z,2.23
2018-09-03T03:25:18.130Z,1.73
2018-09-03T03:26:21.521Z,2.10
2018-09-03T03:27:24.916Z,1.73
2018-09-03T03:28:28.361Z,2.00
2018-09-03T03:29:31.756Z,1.80
2018-09-03T03:30:35.206Z,2.00
2018-09-03T03:31:38.616Z,1.90
2018-09-03T03:32:42.072Z,1.70
2018-09-03T03:33:45.537Z,1.90
2018-09-03T03:34:48.936Z,1.70
2018-09-03T03:35:52.357Z,1.80
2018-09-03T03:36:55.783Z,1.90
2018-09-03T03:37:59.166Z,2.03
2018-09-03T03:39:02.632Z,1.80
2018-09-03T03:40:06.238Z,1.77
2018-09-03T03:41:09.620Z,1.80
2018-09-03T03:42:13.044Z,1.90
2018-09-03T03:43:16.691Z,2.00
2018-09-03T03:44:20.174Z,1.93
2018-09-03T03:45:23.568Z,1.70
2018-09-03T03:46:27.052Z,1.63
2018-09-03T03:47:30.574Z,1.60
2018-09-03T03:48:34.034Z,2.20
2018-09-03T03:49:37.427Z,2.47
2018-09-03T03:50:40.828Z,2.27
2018-09-03T03:51:44.244Z,1.93
2018-09-03T03:52:47.639Z,2.10
2018-09-03T03:53:51.055Z,1.80
2018-09-03T03:54:54.633Z,2.17
2018-09-03T03:55:58.020Z,2.17
2018-09-03T03:57:01.471Z,1.93
2018-09-03T03:58:04.841Z,2.07
2018-09-03T03:59:08.267Z,1.50
2018-09-03T04:00:11.679Z,2.33
2018-09-03T04:01:15.069Z,2.00
2018-09-03T04:02:18.539Z,1.97
2018-09-03T04:03:21.972Z,2.00
2018-09-03T04:04:25.377Z,1.83
2018-09-03T04:05:35.289Z,2.07
2018-09-03T04:06:38.688Z,2.23
2018-09-03T04:07:42.053Z,1.97
2018-09-03T04:08:45.486Z,1.60
2018-09-03T04:09:48.908Z,2.50
2018-09-03T04:10:52.314Z,2.10
2018-09-03T04:11:55.730Z,1.60
2018-09-03T04:13:05.687Z,1.50
2018-09-03T04:14:09.329Z,2.10
2018-09-03T04:15:12.760Z,1.67
2018-09-03T04:16:16.153Z,2.13
2018-09-03T04:17:19.547Z,2.30
2018-09-03T04:18:22.971Z,2.17
2018-09-03T04:19:26.418Z,1.90
2018-09-03T04:20:29.850Z,1.90
2018-09-03T04:21:33.267Z,2.03
2018-09-03T04:22:36.649Z,1.97
2018-09-03T04:23:40.057Z,2.33
2018-09-03T04:24:43.442Z,1.90
2018-09-03T04:25:46.910Z,1.80
2018-09-03T04:26:50.346Z,2.30
2018-09-03T04:27:54.505Z,1.80
2018-09-03T04:28:57.979Z,1.93
2018-09-03T04:30:01.429Z,1.90
2018-09-03T04:31:04.918Z,1.80
2018-09-03T04:32:08.278Z,1.67
2018-09-03T04:33:11.731Z,1.83
2018-09-03T04:34:15.096Z,1.90
2018-09-03T04:35:18.601Z,2.40
2018-09-03T04:36:22.067Z,1.90
2018-09-03T04:37:25.457Z,1.60
2018-09-03T04:38:28.895Z,2.07
2018-09-03T04:39:32.305Z,1.80
2018-09-03T04:40:35.730Z,1.97
2018-09-03T04:41:39.146Z,2.20
2018-09-03T04:42:42.716Z,2.00
2018-09-03T04:43:46.131Z,1.97
2018-09-03T04:44:49.524Z,2.00
2018-09-03T04:45:52.920Z,2.20
2018-09-03T04:46:56.419Z,2.63
2018-09-03T04:47:59.886Z,2.10
2018-09-03T04:49:03.371Z,1.67
2018-09-03T04:50:06.831Z,2.00
2018-09-03T04:51:10.267Z,1.97
2018-09-03T04:52:13.654Z,1.80
2018-09-03T04:53:17.090Z,1.83
2018-09-03T04:54:20.502Z,2.07
2018-09-03T04:55:23.958Z,1.83
2018-09-03T04:56:27.798Z,1.97
2018-09-03T04:57:31.279Z,2.00
2018-09-03T04:58:34.657Z,2.17
2018-09-03T04:59:38.049Z,2.00
2018-09-03T05:00:41.455Z,1.97
2018-09-03T05:01:45.094Z,2.10
2018-09-03T05:02:48.450Z,1.90
2018-09-03T05:03:52.386Z,1.90
2018-09-03T05:04:55.797Z,1.97
2018-09-03T05:05:59.282Z,1.77
2018-09-03T05:07:02.784Z,2.03
2018-09-03T05:08:06.259Z,2.00
2018-09-03T05:09:09.729Z,2.03
2018-09-03T05:10:13.156Z,2.30
2018-09-03T05:11:16.573Z,1.73
2018-09-03T05:12:20.172Z,1.90
2018-09-03T05:13:23.628Z,2.07
2018-09-03T05:14:27.144Z,2.57
2018-09-03T05:15:30.784Z,1.57
2018-09-03T05:16:34.163Z,1.83
2018-09-03T05:17:37.605Z,1.80
2018-09-03T05:18:40.958Z,2.30
2018-09-03T05:19:44.428Z,2.23
2018-09-03T05:20:48.002Z,1.67
2018-09-03T05:21:51.412Z,2.00
2018-09-03T05:22:55.177Z,1.70
2018-09-03T05:23:59.701Z,2.00
2018-09-03T05:25:03.195Z,2.03
2018-09-03T05:26:06.732Z,1.73
2018-09-03T05:27:10.240Z,2.30
2018-09-03T05:28:13.637Z,2.00
2018-09-03T05:29:17.116Z,2.10
2018-09-03T05:30:20.517Z,2.00
2018-09-03T05:31:23.971Z,2.30
2018-09-03T05:32:27.392Z,2.07
2018-09-03T05:33:30.917Z,2.37
2018-09-03T05:34:34.360Z,2.53
2018-09-03T05:35:37.740Z,1.80
2018-09-03T05:36:41.107Z,2.90
2018-09-03T05:37:44.517Z,2.20
2018-09-03T05:38:47.934Z,2.63
2018-09-03T05:39:51.311Z,2.40
2018-09-03T05:40:54.718Z,2.03
2018-09-03T05:41:58.153Z,3.00
2018-09-03T05:43:01.667Z,2.30
2018-09-03T05:44:05.281Z,2.50
2018-09-03T05:45:08.632Z,3.07
2018-09-03T05:46:13.079Z,3.40
2018-09-03T05:47:16.518Z,3.60
2018-09-03T05:48:19.889Z,3.97
2018-09-03T05:49:23.307Z,3.73
2018-09-03T05:50:26.771Z,3.63
2018-09-03T05:51:30.208Z,3.97
2018-09-03T05:52:33.720Z,3.93
2018-09-03T05:53:38.283Z,4.10
2018-09-03T05:54:41.785Z,4.37
2018-09-03T05:55:45.221Z,4.07
2018-09-03T05:56:48.656Z,4.03
2018-09-03T05:57:52.032Z,4.20
2018-09-03T05:58:55.437Z,5.27
2018-09-03T05:59:59.062Z,3.80
2018-09-03T06:01:03.795Z,4.30
2018-09-03T06:02:07.189Z,4.63
2018-09-03T06:03:10.603Z,4.20
2018-09-03T06:04:14.063Z,4.37
2018-09-03T06:05:17.531Z,4.43
2018-09-03T06:06:20.916Z,9.17
2018-09-03T06:07:24.344Z,7.33
2018-09-03T06:08:28.080Z,6.93
2018-09-03T06:09:31.493Z,6.40
2018-09-03T06:10:35.021Z,6.37
2018-09-03T06:11:38.515Z,6.10
2018-09-03T06:12:41.908Z,5.70
2018-09-03T06:13:45.386Z,5.70
2018-09-03T06:14:48.832Z,5.50
2018-09-03T06:15:52.398Z,4.87
2018-09-03T06:16:55.821Z,5.23
2018-09-03T06:17:59.292Z,5.03
2018-09-03T06:19:02.690Z,6.43
2018-09-03T06:20:06.105Z,6.37
2018-09-03T06:21:09.564Z,5.60
2018-09-03T06:22:13.028Z,6.00
2018-09-03T06:23:16.427Z,5.97
2018-09-03T06:24:19.817Z,6.10
2018-09-03T06:25:23.235Z,6.53
2018-09-03T06:26:26.679Z,7.10
2018-09-03T06:27:30.118Z,6.43
2018-09-03T06:28:33.551Z,6.40
2018-09-03T06:29:36.973Z,6.53
2018-09-03T06:30:40.363Z,6.60
2018-09-03T06:31:43.792Z,7.47
2018-09-03T06:32:47.235Z,8.57
2018-09-03T06:33:50.611Z,6.33
2018-09-03T06:34:54.037Z,6.33
2018-09-03T06:35:58.347Z,5.83
2018-09-03T06:37:01.708Z,6.30
2018-09-03T06:38:05.108Z,6.60
2018-09-03T06:39:09.098Z,5.03
2018-09-03T06:40:12.464Z,5.23
2018-09-03T06:41:18.157Z,5.40
2018-09-03T06:42:21.698Z,5.40
2018-09-03T06:43:25.116Z,6.00
2018-09-03T06:44:29.205Z,5.20
2018-09-03T06:45:32.649Z,5.33
2018-09-03T06:46:36.074Z,4.60
2018-09-03T06:47:39.526Z,4.83
2018-09-03T06:48:42.911Z,4.80
2018-09-03T06:49:46.445Z,5.27
2018-09-03T06:50:49.907Z,5.20
2018-09-03T06:51:53.333Z,5.63
2018-09-03T06:52:56.726Z,5.60
2018-09-03T06:54:00.226Z,6.00
2018-09-03T06:55:03.651Z,5.20
2018-09-03T06:56:07.082Z,4.97
2018-09-03T06:57:10.607Z,5.80
2018-09-03T06:58:14.070Z,5.30
2018-09-03T06:59:17.707Z,4.90
2018-09-03T07:00:21.148Z,4.70
2018-09-03T07:01:24.521Z,5.00
2018-09-03T07:02:28.107Z,4.53
2018-09-03T07:03:31.579Z,4.77
2018-09-03T07:04:34.959Z,4.67
2018-09-03T07:05:38.353Z,4.30
2018-09-03T07:06:41.752Z,5.10
2018-09-03T07:07:45.173Z,4.80
2018-09-03T07:08:48.587Z,5.23
2018-09-03T07:09:51.973Z,5.13
2018-09-03T07:10:55.370Z,6.03
2018-09-03T07:11:58.817Z,5.20
2018-09-03T07:13:05.679Z,5.03
2018-09-03T07:14:09.088Z,4.83
2018-09-03T07:15:12.500Z,5.27
2018-09-03T07:16:15.910Z,4.90
2018-09-03T07:17:19.337Z,4.50
2018-09-03T07:18:22.750Z,4.80
2018-09-03T07:19:26.417Z,4.87
2018-09-03T07:20:29.892Z,4.50
2018-09-03T07:21:33.336Z,5.00
2018-09-03T07:22:36.726Z,4.37
2018-09-03T07:23:40.112Z,4.60
2018-09-03T07:24:43.583Z,4.67
2018-09-03T07:25:46.996Z,4.83
2018-09-03T07:26:50.483Z,5.20
2018-09-03T07:27:53.965Z,4.50
2018-09-03T07:28:57.437Z,4.30
2018-09-03T07:30:00.886Z,4.40
2018-09-03T07:31:04.336Z,4.07
2018-09-03T07:32:07.953Z,4.40
2018-09-03T07:33:11.412Z,4.80
2018-09-03T07:34:14.816Z,5.17
2018-09-03T07:35:18.252Z,4.33
2018-09-03T07:36:21.648Z,4.73
2018-09-03T07:37:25.043Z,4.47
2018-09-03T07:38:28.460Z,4.63
2018-09-03T07:39:31.911Z,4.33
2018-09-03T07:40:35.320Z,4.00
2018-09-03T07:41:38.704Z,4.70
2018-09-03T07:42:42.119Z,4.30
2018-09-03T07:43:45.538Z,3.97
2018-09-03T07:44:48.971Z,4.63
2018-09-03T07:45:52.423Z,4.17
2018-09-03T07:46:55.850Z,4.60
2018-09-03T07:47:59.258Z,4.00
2018-09-03T07:49:02.719Z,4.33
2018-09-03T07:50:06.174Z,4.33
2018-09-03T07:51:09.648Z,4.20
2018-09-03T07:52:13.032Z,4.27
2018-09-03T07:53:16.439Z,4.80
2018-09-03T07:54:20.080Z,4.00
2018-09-03T07:55:23.474Z,4.80
2018-09-03T07:56:26.904Z,4.13
2018-09-03T07:57:30.271Z,3.97
2018-09-03T07:58:33.678Z,4.53
2018-09-03T07:59:37.093Z,4.37
2018-09-03T08:00:40.445Z,4.20
2018-09-03T08:01:43.882Z,3.83
2018-09-03T08:02:47.271Z,4.50
2018-09-03T08:03:50.662Z,4.07
2018-09-03T08:04:54.030Z,4.27
2018-09-03T08:05:57.404Z,3.77
2018-09-03T08:07:00.913Z,4.53
2018-09-03T08:08:04.341Z,4.07
2018-09-03T08:09:09.910Z,4.30
2018-09-03T08:10:13.305Z,3.67
2018-09-03T08:11:16.736Z,4.33
2018-09-03T08:12:20.186Z,3.43
2018-09-03T08:13:28.940Z,4.03
2018-09-03T08:14:32.356Z,4.30
2018-09-03T08:15:35.767Z,3.83
2018-09-03T08:16:39.153Z,4.33
2018-09-03T08:17:42.522Z,4.00
2018-09-03T08:18:45.965Z,4.20
2018-09-03T08:19:49.399Z,3.90
2018-09-03T08:20:52.824Z,3.60
2018-09-03T08:21:56.305Z,3.83
2018-09-03T08:22:59.747Z,4.60
2018-09-03T08:24:03.187Z,3.97
2018-09-03T08:25:06.631Z,3.37
2018-09-03T08:26:10.038Z,4.13
2018-09-03T08:27:13.435Z,3.90
2018-09-03T08:28:16.997Z,3.40
2018-09-03T08:29:20.389Z,4.50
2018-09-03T08:30:23.793Z,3.80
2018-09-03T08:31:27.161Z,3.83
2018-09-03T08:32:30.605Z,3.77
2018-09-03T08:33:34.048Z,4.40
2018-09-03T08:34:37.557Z,4.20
2018-09-03T08:35:40.989Z,3.97
2018-09-03T08:36:44.410Z,3.93
2018-09-03T08:37:47.822Z,4.20
2018-09-03T08:38:51.235Z,4.47
2018-09-03T08:39:54.626Z,3.30
2018-09-03T08:40:58.092Z,4.00
2018-09-03T08:42:01.498Z,3.70
2018-09-03T08:43:04.958Z,4.30
2018-09-03T08:44:08.403Z,3.47
2018-09-03T08:45:11.784Z,4.10
2018-09-03T08:46:15.266Z,3.53
2018-09-03T08:47:18.702Z,3.87
2018-09-03T08:48:22.247Z,3.77
2018-09-03T08:49:25.708Z,4.60
2018-09-03T08:50:29.161Z,3.70
2018-09-03T08:51:32.538Z,3.53
2018-09-03T08:52:35.978Z,4.00
2018-09-03T08:53:39.436Z,4.13
2018-09-03T08:54:42.886Z,4.07
2018-09-03T08:55:46.307Z,3.90
2018-09-03T08:56:49.759Z,3.57
2018-09-03T08:57:53.174Z,3.80
2018-09-03T08:58:56.709Z,3.97
2018-09-03T09:00:00.096Z,3.60
2018-09-03T09:01:03.500Z,3.77
2018-09-03T09:02:07.046Z,3.80
2018-09-03T09:03:15.818Z,3.40
2018-09-03T09:04:19.257Z,3.60
2018-09-03T09:05:22.704Z,4.00
2018-09-03T09:06:26.125Z,3.77
2018-09-03T09:07:29.530Z,3.93
2018-09-03T09:08:32.925Z,3.43
2018-09-03T09:09:36.401Z,3.33
2018-09-03T09:10:39.823Z,3.70
2018-09-03T09:11:43.206Z,3.83
2018-09-03T09:12:46.617Z,3.53
2018-09-03T09:13:50.014Z,3.53
2018-09-03T09:14:53.461Z,3.50
2018-09-03T09:15:56.893Z,3.50
2018-09-03T09:17:00.281Z,3.53
2018-09-03T09:18:03.689Z,3.90
2018-09-03T09:19:07.106Z,3.67
2018-09-03T09:20:10.531Z,3.80
2018-09-03T09:21:13.940Z,4.50
2018-09-03T09:22:17.376Z,3.70
2018-09-03T09:23:20.736Z,3.50
2018-09-03T09:24:24.216Z,4.07
2018-09-03T09:25:27.850Z,3.90
2018-09-03T09:26:31.234Z,4.10
2018-09-03T09:27:34.647Z,3.40
2018-09-03T09:28:38.040Z,3.67
2018-09-03T09:29:41.444Z,3.60
2018-09-03T09:30:44.862Z,3.30
2018-09-03T09:31:48.247Z,3.37
2018-09-03T09:32:51.645Z,3.70
2018-09-03T09:33:55.076Z,3.67
2018-09-03T09:34:58.465Z,3.97
2018-09-03T09:36:01.904Z,3.83
2018-09-03T09:37:05.489Z,3.47
2018-09-03T09:38:09.086Z,3.83
2018-09-03T09:39:12.473Z,3.50
2018-09-03T09:40:15.902Z,3.40
2018-09-03T09:41:19.320Z,3.10
2018-09-03T09:42:22.762Z,4.03
2018-09-03T09:43:26.184Z,3.43
2018-09-03T09:44:29.629Z,3.60
2018-09-03T09:45:33.066Z,3.77
2018-09-03T09:46:36.460Z,3.60
2018-09-03T09:47:39.836Z,3.23
2018-09-03T09:48:43.257Z,3.10
2018-09-03T09:49:46.660Z,3.40
2018-09-03T09:50:50.080Z,3.20
2018-09-03T09:51:53.517Z,3.07
2018-09-03T09:52:56.974Z,3.20
2018-09-03T09:54:00.396Z,3.03
2018-09-03T09:55:04.117Z,3.90
2018-09-03T09:56:07.596Z,3.57
2018-09-03T09:57:11.188Z,3.07
2018-09-03T09:58:14.562Z,3.50
2018-09-03T09:59:17.906Z,3.60
2018-09-03T10:00:26.580Z,3.50
2018-09-03T10:01:37.644Z,3.50
2018-09-03T10:02:41.186Z,3.70
2018-09-03T10:03:44.603Z,3.40
2018-09-03T10:04:47.949Z,3.77
2018-09-03T10:05:51.343Z,3.30
2018-09-03T10:06:54.707Z,3.33
2018-09-03T10:07:58.198Z,3.40
2018-09-03T10:09:01.584Z,3.63
2018-09-03T10:10:05.433Z,3.73
2018-09-03T10:11:08.852Z,3.03
2018-09-03T10:12:12.301Z,3.20
2018-09-03T10:13:15.732Z,3.50
2018-09-03T10:14:19.150Z,3.20
2018-09-03T10:15:22.576Z,3.13
2018-09-03T10:16:26.210Z,4.03
2018-09-03T10:17:30.342Z,3.13
2018-09-03T10:18:34.021Z,3.20
2018-09-03T10:19:37.418Z,3.43
2018-09-03T10:20:40.781Z,3.03
2018-09-03T10:21:44.173Z,3.10
2018-09-03T10:22:47.585Z,3.50
2018-09-03T10:23:51.026Z,3.07
2018-09-03T10:24:54.648Z,4.07
2018-09-03T10:25:59.073Z,3.30
2018-09-03T10:27:02.528Z,3.50
2018-09-03T10:28:05.957Z,3.13
2018-09-03T10:29:09.481Z,3.53
2018-09-03T10:30:12.864Z,2.97
2018-09-03T10:31:16.327Z,3.60
2018-09-03T10:32:20.478Z,3.20
2018-09-03T10:33:23.904Z,2.87
2018-09-03T10:34:27.354Z,3.33
2018-09-03T10:35:30.780Z,3.70
2018-09-03T10:36:34.230Z,2.97
2018-09-03T10:37:37.650Z,3.50
2018-09-03T10:38:41.029Z,3.50
2018-09-03T10:39:44.408Z,2.87
2018-09-03T10:40:47.843Z,3.67
2018-09-03T10:41:51.228Z,3.30
2018-09-03T10:42:55.848Z,3.20
2018-09-03T10:43:59.265Z,3.57
2018-09-03T10:45:02.682Z,3.13
2018-09-03T10:46:06.399Z,2.70
2018-09-03T10:47:09.904Z,3.63
2018-09-03T10:48:14.547Z,2.87
2018-09-03T10:49:17.984Z,3.00
2018-09-03T10:50:21.362Z,2.80
2018-09-03T10:51:24.787Z,2.97
2018-09-03T10:52:28.187Z,3.60
2018-09-03T10:53:31.660Z,2.93
2018-09-03T10:54:35.111Z,3.37
2018-09-03T10:55:39.167Z,3.30
2018-09-03T10:56:42.581Z,3.63
2018-09-03T10:57:45.960Z,3.43
2018-09-03T10:58:49.505Z,3.10
2018-09-03T10:59:52.923Z,3.70
2018-09-03T11:00:56.480Z,3.13
2018-09-03T11:01:59.888Z,2.87
2018-09-03T11:03:03.401Z,3.23
2018-09-03T11:04:07.049Z,3.17
2018-09-03T11:05:10.589Z,2.90
2018-09-03T11:06:13.953Z,3.20
2018-09-03T11:07:17.367Z,3.10
2018-09-03T11:08:20.748Z,3.53
2018-09-03T11:09:24.184Z,3.10
2018-09-03T11:10:27.633Z,3.27
2018-09-03T11:11:31.041Z,2.93
2018-09-03T11:12:34.468Z,3.40
2018-09-03T11:13:37.898Z,2.97
2018-09-03T11:14:41.310Z,3.40
2018-09-03T11:15:44.791Z,3.30
2018-09-03T11:16:48.210Z,3.67
2018-09-03T11:17:51.636Z,3.20
2018-09-03T11:18:55.042Z,2.73
2018-09-03T11:20:00.610Z,3.20
2018-09-03T11:21:03.973Z,3.10
2018-09-03T11:22:07.366Z,3.00
2018-09-03T11:23:10.780Z,3.23
2018-09-03T11:24:14.191Z,2.67
2018-09-03T11:25:18.759Z,3.13
2018-09-03T11:26:22.130Z,2.93
2018-09-03T11:27:25.599Z,2.90
2018-09-03T11:28:29.179Z,3.37
2018-09-03T11:29:32.597Z,3.23
2018-09-03T11:30:36.075Z,2.50
2018-09-03T11:31:39.452Z,3.33
2018-09-03T11:32:46.965Z,3.00
2018-09-03T11:33:50.418Z,3.20
2018-09-03T11:34:53.847Z,2.77
2018-09-03T11:35:57.239Z,2.50
2018-09-03T11:37:00.792Z,2.93
2018-09-03T11:38:04.359Z,3.23
2018-09-03T11:39:10.111Z,3.47
2018-09-03T11:40:13.570Z,2.80
2018-09-03T11:41:16.952Z,2.70
2018-09-03T11:42:20.379Z,3.00
2018-09-03T11:43:23.764Z,3.20
2018-09-03T11:44:27.159Z,3.20
2018-09-03T11:45:30.582Z,3.20
2018-09-03T11:46:34.260Z,3.27
2018-09-03T11:47:37.711Z,3.33
2018-09-03T11:48:41.116Z,3.10
2018-09-03T11:49:44.573Z,2.83
2018-09-03T11:50:48.062Z,3.20
2018-09-03T11:51:51.460Z,2.57
2018-09-03T11:52:54.842Z,3.40
2018-09-03T11:53:58.328Z,3.20
2018-09-03T11:55:01.719Z,2.90
2018-09-03T11:56:05.192Z,3.30
2018-09-03T11:57:08.597Z,2.97
2018-09-03T11:58:12.009Z,2.90
2018-09-03T11:59:15.397Z,2.93
2018-09-03T12:00:30.927Z,3.00
2018-09-03T12:01:34.298Z,3.00
2018-09-03T12:02:37.725Z,3.23
2018-09-03T12:03:41.218Z,3.27
2018-09-03T12:04:44.632Z,2.80
2018-09-03T12:05:48.044Z,3.10
2018-09-03T12:06:51.557Z,2.83
2018-09-03T12:07:55.049Z,2.90
2018-09-03T12:08:58.475Z,3.03
2018-09-03T12:10:02.038Z,2.97
2018-09-03T12:11:06.193Z,3.10
2018-09-03T12:12:09.635Z,3.70
2018-09-03T12:13:13.078Z,3.20
2018-09-03T12:14:23.427Z,2.90
2018-09-03T12:15:33.011Z,2.90
2018-09-03T12:16:36.480Z,2.87
2018-09-03T12:17:39.906Z,3.00
2018-09-03T12:18:44.154Z,3.30
2018-09-03T12:19:47.554Z,2.77
2018-09-03T12:20:50.980Z,3.10
2018-09-03T12:21:54.392Z,2.93
2018-09-03T12:22:57.777Z,2.83
2018-09-03T12:24:01.189Z,3.10
2018-09-03T12:25:04.663Z,2.73
2018-09-03T12:26:08.472Z,3.07
2018-09-03T12:27:11.907Z,3.00
2018-09-03T12:28:15.303Z,2.67
2018-09-03T12:29:18.678Z,2.73
2018-09-03T12:30:22.092Z,2.70
2018-09-03T12:31:25.633Z,2.77
2018-09-03T12:32:29.080Z,2.40
2018-09-03T12:33:32.743Z,3.00
2018-09-03T12:34:36.170Z,2.87
2018-09-03T12:35:39.631Z,3.73
2018-09-03T12:36:43.002Z,3.20
2018-09-03T12:37:46.475Z,3.20
2018-09-03T12:38:49.950Z,3.10
2018-09-03T12:39:53.645Z,2.80
2018-09-03T12:40:57.069Z,2.80
2018-09-03T12:42:00.524Z,3.27
2018-09-03T12:43:03.993Z,2.70
2018-09-03T12:44:07.422Z,3.83
2018-09-03T12:45:10.840Z,3.33
2018-09-03T12:46:14.227Z,3.70
2018-09-03T12:47:17.695Z,4.13
2018-09-03T12:48:21.326Z,4.10
2018-09-03T12:49:24.743Z,4.00
2018-09-03T12:50:28.224Z,3.93
2018-09-03T12:51:31.607Z,4.43
2018-09-03T12:52:35.006Z,4.67
2018-09-03T12:53:38.438Z,4.47
2018-09-03T12:54:41.856Z,4.53
2018-09-03T12:55:45.259Z,5.10
2018-09-03T12:56:48.686Z,4.83
2018-09-03T12:57:52.045Z,5.37
2018-09-03T12:58:55.468Z,4.83
2018-09-03T13:00:05.152Z,5.00
2018-09-03T13:01:02.518Z,5.07
2018-09-03T13:02:05.967Z,5.37
2018-09-03T13:03:09.628Z,5.40
2018-09-03T13:04:13.081Z,5.47
2018-09-03T13:05:16.499Z,5.60
2018-09-03T13:06:19.963Z,5.20
2018-09-03T13:07:23.369Z,5.40
2018-09-03T13:08:26.804Z,5.77
2018-09-03T13:09:30.265Z,5.43
2018-09-03T13:10:33.680Z,5.50
2018-09-03T13:11:37.259Z,5.70
2018-09-03T13:12:40.741Z,6.67
2018-09-03T13:13:44.111Z,6.23
2018-09-03T13:14:47.535Z,6.00
2018-09-03T13:15:50.954Z,6.07
2018-09-03T13:16:54.389Z,6.57
2018-09-03T13:17:57.818Z,6.13
2018-09-03T13:19:01.235Z,6.20
2018-09-03T13:20:04.949Z,6.90
2018-09-03T13:21:08.396Z,6.93
2018-09-03T13:22:11.812Z,6.30
2018-09-03T13:23:15.191Z,5.90
2018-09-03T13:24:18.598Z,7.20
2018-09-03T13:25:22.050Z,5.43
2018-09-03T13:26:25.480Z,5.50
2018-09-03T13:27:28.918Z,6.43
2018-09-03T13:28:32.384Z,6.60
2018-09-03T13:29:35.808Z,6.57
2018-09-03T13:30:39.248Z,6.17
2018-09-03T13:31:42.792Z,6.20
2018-09-03T13:32:46.204Z,5.20
2018-09-03T13:33:49.672Z,6.30
2018-09-03T13:34:53.070Z,6.77
2018-09-03T13:35:56.610Z,6.30
2018-09-03T13:37:00.159Z,6.33
2018-09-03T13:38:03.546Z,5.50
2018-09-03T13:39:08.941Z,5.57
2018-09-03T13:40:12.330Z,5.40
2018-09-03T13:41:15.782Z,6.47
2018-09-03T13:42:19.200Z,5.37
2018-09-03T13:43:22.684Z,6.30
2018-09-03T13:44:26.130Z,5.70
2018-09-03T13:45:29.598Z,5.40
2018-09-03T13:46:33.055Z,5.97
2018-09-03T13:47:36.490Z,5.90
2018-09-03T13:48:39.900Z,5.93
2018-09-03T13:49:43.280Z,5.40
2018-09-03T13:50:46.663Z,6.10
2018-09-03T13:51:50.128Z,5.73
2018-09-03T13:52:53.550Z,5.03
2018-09-03T13:53:56.944Z,5.83
2018-09-03T13:55:00.423Z,5.63
2018-09-03T13:56:03.748Z,5.37
2018-09-03T13:57:07.168Z,6.50
2018-09-03T13:58:10.549Z,5.73
2018-09-03T13:59:14.001Z,5.50
2018-09-03T14:00:17.378Z,5.47
2018-09-03T14:01:20.775Z,6.63
2018-09-03T14:02:24.215Z,5.43
2018-09-03T14:03:27.621Z,5.70
2018-09-03T14:04:31.036Z,4.80
2018-09-03T14:05:34.629Z,5.77
2018-09-03T14:06:38.010Z,5.50
2018-09-03T14:07:41.461Z,6.00